Savoy, South Dakota
Current Conditions -  °F | °C
As of 10:55 PM on Saturday 20 Dec 2014 (Local Time) from KSPF Reporting Station
Clear Clear  
Wind Chill: 34°   Ceiling: Unl
Heat Index: 34°   Visibility: 10mi
Dew Point: 23°   Wind: 3mph
Humidity: 65%   Direction: 330°NNW
Pressure: 29.75"   Gusts: NA
Location:  44.253°N, 103.912°W
Report Text: KSPF 210555Z AUTO 33003KT 10SM CLR 01/M05 A2975 RMK AO2
Loading
Personal Weather Stations






























Interactive Weather Map New forecast layout! Learn more

10-Day Weather Forecast

Advertisements
Track Severe Weather on mobile